Time;durP1;ratioP1;P1;durP2;ratioP2;P2;SDS_P1;SDS_P2;PMS_P1;PMS_P2;Temp;Humidity;BMP_temperature;BMP_pressure;BME280_temperature;BME280_humidity;BME280_pressure;Samples;Min_cycle;Max_cycle;Signal;HPM_P1;HPM_P2
2021/08/10 00:01:40;;;;;;;6.05;2.90;;;18.60;1.00;;;;;;5077284;28;20552;-76
2021/08/10 00:04:06;;;;;;;3.28;2.92;;;18.40;1.00;;;;;;5073751;28;20060;-77
2021/08/10 00:06:32;;;;;;;3.60;3.15;;;18.30;1.00;;;;;;5072077;28;20463;-76
2021/08/10 00:08:57;;;;;;;4.50;2.83;;;18.30;1.00;;;;;;5074217;28;20072;-77
2021/08/10 00:11:23;;;;;;;5.90;2.80;;;18.20;1.00;;;;;;5073213;28;20024;-77
2021/08/10 00:13:49;;;;;;;4.90;2.90;;;18.20;1.00;;;;;;5076707;28;20052;-77
2021/08/10 00:16:14;;;;;;;5.43;3.00;;;18.10;1.00;;;;;;5075850;28;20036;-77
2021/08/10 00:18:40;;;;;;;3.08;2.78;;;18.10;1.00;;;;;;5076068;28;20030;-77
2021/08/10 00:21:06;;;;;;;4.80;3.55;;;18.00;1.00;;;;;;5075974;28;20031;-76
2021/08/10 00:23:31;;;;;;;5.75;3.25;;;18.00;1.00;;;;;;5071551;28;20017;-76
2021/08/10 00:25:57;;;;;;;5.43;3.30;;;18.00;1.00;;;;;;5076344;28;20044;-76
2021/08/10 00:28:22;;;;;;;4.80;3.03;;;17.90;1.00;;;;;;5075647;28;20078;-77
2021/08/10 00:30:48;;;;;;;4.20;2.88;;;18.00;1.00;;;;;;5075926;28;20020;-76
2021/08/10 00:33:14;;;;;;;5.85;2.83;;;17.90;1.00;;;;;;5074292;28;20499;-77
2021/08/10 00:35:41;;;;;;;3.85;2.83;;;17.90;1.00;;;;;;5069480;28;20381;-77
2021/08/10 00:38:08;;;;;;;7.03;3.10;;;17.90;1.00;;;;;;5077124;28;20573;-76
2021/08/10 00:40:35;;;;;;;5.63;2.85;;;17.80;1.00;;;;;;5073979;28;20035;-76
2021/08/10 00:43:01;;;;;;;4.90;3.20;;;18.00;1.00;;;;;;5075426;28;20082;-76
2021/08/10 00:45:27;;;;;;;5.88;3.42;;;17.90;1.00;;;;;;5076679;28;20439;-77
2021/08/10 00:47:52;;;;;;;5.63;3.17;;;17.80;1.00;;;;;;5073380;28;20491;-77
2021/08/10 00:50:19;;;;;;;4.95;3.10;;;17.80;1.00;;;;;;5073620;28;20020;-77
2021/08/10 00:52:44;;;;;;;5.22;3.22;;;17.70;1.00;;;;;;5058667;28;20028;-77
2021/08/10 00:55:11;;;;;;;4.60;2.85;;;17.70;1.00;;;;;;5071109;28;20032;-77
2021/08/10 00:57:36;;;;;;;5.30;3.47;;;17.70;1.00;;;;;;5075726;28;20062;-77
2021/08/10 01:00:04;;;;;;;5.13;3.22;;;17.80;1.00;;;;;;5074050;28;20051;-77
2021/08/10 01:02:30;;;;;;;3.90;3.13;;;17.80;1.00;;;;;;5071452;28;20024;-77
2021/08/10 01:04:56;;;;;;;4.32;3.05;;;17.80;1.00;;;;;;5076492;28;20389;-77
2021/08/10 01:07:40;;;;;;;5.57;3.53;;;17.70;1.00;;;;;;5074855;28;20067;-77
2021/08/10 01:10:20;;;;;;;5.05;3.35;;;17.70;1.00;;;;;;5069252;28;20029;-77
2021/08/10 01:13:13;;;;;;;4.35;2.90;;;17.50;1.00;;;;;;5071833;28;20024;-76
2021/08/10 01:15:54;;;;;;;4.57;2.90;;;17.40;1.00;;;;;;5073819;28;20032;-77
2021/08/10 01:18:25;;;;;;;5.00;3.13;;;17.30;1.00;;;;;;5074237;28;20027;-77
2021/08/10 01:21:20;;;;;;;5.75;3.25;;;17.30;1.00;;;;;;5072489;28;20028;-77
2021/08/10 01:23:51;;;;;;;5.05;2.90;;;17.30;1.00;;;;;;5056606;28;20043;-77
2021/08/10 01:26:23;;;;;;;3.22;2.92;;;17.30;1.00;;;;;;5085760;22;20139;-81
2021/08/10 01:29:07;;;;;;;4.90;2.92;;;17.40;1.00;;;;;;5074677;28;20029;-83
2021/08/10 01:31:36;;;;;;;5.30;2.97;;;17.30;1.00;;;;;;5054900;28;20029;-83
2021/08/10 01:34:29;;;;;;;4.57;3.10;;;17.20;1.00;;;;;;5073785;28;20028;-83
2021/08/10 01:36:57;;;;;;;5.32;3.50;;;17.20;1.00;;;;;;5060816;28;20036;-83
2021/08/10 01:39:26;;;;;;;6.30;3.10;;;17.10;1.00;;;;;;5070950;28;20521;-82
2021/08/10 01:41:53;;;;;;;4.28;3.22;;;17.10;1.00;;;;;;5085845;28;20024;-83
2021/08/10 01:44:25;;;;;;;4.90;3.00;;;17.00;1.00;;;;;;5073074;28;20073;-82
2021/08/10 01:46:51;;;;;;;6.05;3.00;;;17.10;1.00;;;;;;5074246;28;20468;-83
2021/08/10 01:49:18;;;;;;;6.55;2.92;;;17.00;1.00;;;;;;5073824;28;20461;-83
2021/08/10 01:51:45;;;;;;;5.70;3.10;;;17.10;1.00;;;;;;5072431;28;20083;-83
2021/08/10 01:54:13;;;;;;;3.55;2.90;;;17.00;1.00;;;;;;5070444;28;20133;-83
2021/08/10 01:56:39;;;;;;;7.60;3.53;;;16.90;1.00;;;;;;5051526;28;20046;-82
2021/08/10 01:59:06;;;;;;;6.30;3.28;;;16.90;1.00;;;;;;5084054;28;20069;-82
2021/08/10 02:01:32;;;;;;;5.43;3.28;;;16.90;1.00;;;;;;5074350;28;20036;-82
2021/08/10 02:03:58;;;;;;;6.82;3.40;;;16.90;1.00;;;;;;5073461;28;20407;-83
2021/08/10 02:06:26;;;;;;;4.13;3.20;;;16.80;1.00;;;;;;5070091;28;20211;-83
2021/08/10 02:08:53;;;;;;;5.03;3.35;;;16.80;1.00;;;;;;5078584;28;20020;-82
2021/08/10 02:11:22;;;;;;;4.07;3.40;;;16.80;1.00;;;;;;5072474;28;20035;-83
2021/08/10 02:13:50;;;;;;;6.10;2.97;;;16.70;1.00;;;;;;5073622;28;20400;-82
2021/08/10 02:16:18;;;;;;;7.47;4.25;;;16.80;1.00;;;;;;5073280;28;20032;-83
2021/08/10 02:18:46;;;;;;;4.90;3.60;;;16.90;1.00;;;;;;5073728;28;20017;-83
2021/08/10 02:21:23;;;;;;;3.78;3.35;;;16.80;1.00;;;;;;5074428;28;20027;-83
2021/08/10 02:23:50;;;;;;;4.00;3.10;;;16.70;1.00;;;;;;5069180;28;20031;-83
2021/08/10 02:26:19;;;;;;;8.15;3.60;;;16.60;1.00;;;;;;5072855;28;20127;-83
2021/08/10 02:28:45;;;;;;;5.90;3.25;;;16.70;1.00;;;;;;5057117;28;20025;-83
2021/08/10 02:31:12;;;;;;;6.80;3.33;;;16.60;1.00;;;;;;5053854;28;20115;-83
2021/08/10 02:33:39;;;;;;;4.05;3.53;;;16.60;1.00;;;;;;5072136;28;20388;-83
2021/08/10 02:36:07;;;;;;;7.05;3.20;;;16.60;1.00;;;;;;5072960;28;20027;-83
2021/08/10 02:38:34;;;;;;;5.22;3.33;;;16.50;1.00;;;;;;5068079;28;20033;-83
2021/08/10 02:41:00;;;;;;;5.28;3.15;;;16.40;1.00;;;;;;5075721;28;20048;-83
2021/08/10 02:43:28;;;;;;;5.82;3.55;;;16.50;1.00;;;;;;5076245;28;20115;-83
2021/08/10 02:45:54;;;;;;;3.35;3.05;;;16.50;1.00;;;;;;5077084;28;20107;-83
2021/08/10 02:48:20;;;;;;;4.43;3.25;;;16.50;1.00;;;;;;5077466;28;20032;-83
2021/08/10 02:50:47;;;;;;;5.32;3.28;;;16.60;1.00;;;;;;5073893;28;20137;-82
2021/08/10 02:53:13;;;;;;;6.60;3.17;;;16.50;1.00;;;;;;5076779;28;20025;-83
2021/08/10 02:55:43;;;;;;;4.93;3.42;;;16.50;1.00;;;;;;5078343;28;20040;-83
2021/08/10 02:58:21;;;;;;;5.70;3.38;;;16.50;1.00;;;;;;5077251;28;20103;-83
2021/08/10 03:00:59;;;;;;;4.97;3.65;;;16.40;1.00;;;;;;5077190;28;20032;-83
2021/08/10 03:03:29;;;;;;;10.90;3.35;;;16.30;1.00;;;;;;5077489;28;20521;-82
2021/08/10 03:05:57;;;;;;;4.32;3.30;;;16.30;1.00;;;;;;5070217;28;20408;-83
2021/08/10 03:08:28;;;;;;;6.22;3.28;;;16.20;1.00;;;;;;5073823;28;20099;-83
2021/08/10 03:10:55;;;;;;;5.20;3.20;;;16.10;1.00;;;;;;5059521;28;20069;-83
2021/08/10 03:13:24;;;;;;;7.45;3.65;;;16.20;1.00;;;;;;5075388;28;20047;-83
2021/08/10 03:15:54;;;;;;;5.45;3.05;;;16.30;1.00;;;;;;5076203;28;20035;-82
2021/08/10 03:18:25;;;;;;;9.00;3.80;;;16.30;1.00;;;;;;5059056;28;20115;-82
2021/08/10 03:20:56;;;;;;;7.35;3.65;;;16.20;1.00;;;;;;5073814;28;20024;-82
2021/08/10 03:23:24;;;;;;;4.78;3.20;;;16.20;1.00;;;;;;5072363;28;20396;-83
2021/08/10 03:25:50;;;;;;;7.93;3.40;;;16.20;1.00;;;;;;5076723;28;20052;-82
2021/08/10 03:28:18;;;;;;;5.78;3.40;;;16.20;1.00;;;;;;5077128;28;20024;-82
2021/08/10 03:30:45;;;;;;;4.85;3.60;;;16.20;1.00;;;;;;5069763;28;20024;-83
2021/08/10 03:33:11;;;;;;;4.90;3.60;;;16.20;1.00;;;;;;5076944;28;20020;-82
2021/08/10 03:35:38;;;;;;;5.63;3.70;;;16.20;1.00;;;;;;5056549;28;20048;-82
2021/08/10 03:38:06;;;;;;;6.40;3.60;;;16.20;1.00;;;;;;5090287;28;20388;-82
2021/08/10 03:40:32;;;;;;;6.78;3.10;;;16.30;1.00;;;;;;5076437;28;20032;-82
2021/08/10 03:42:58;;;;;;;4.35;3.38;;;16.20;1.00;;;;;;5076472;28;20100;-83
2021/08/10 03:45:26;;;;;;;4.22;3.45;;;16.30;1.00;;;;;;5074230;28;20028;-83
2021/08/10 03:47:53;;;;;;;4.57;3.55;;;16.30;1.00;;;;;;5072510;28;20032;-82
2021/08/10 03:50:20;;;;;;;4.97;3.50;;;16.30;1.00;;;;;;5074965;28;20380;-82
2021/08/10 03:52:48;;;;;;;7.80;3.35;;;16.30;1.00;;;;;;5075690;28;20078;-82
2021/08/10 03:55:14;;;;;;;4.90;3.13;;;16.10;1.00;;;;;;5076385;28;20028;-83
2021/08/10 03:57:40;;;;;;;6.82;3.60;;;16.10;1.00;;;;;;5076026;28;20038;-81
2021/08/10 04:00:07;;;;;;;5.78;3.28;;;16.20;1.00;;;;;;5073482;28;20090;-82
2021/08/10 04:02:34;;;;;;;6.43;3.42;;;16.20;1.00;;;;;;5072134;28;20078;-81
2021/08/10 04:05:00;;;;;;;4.63;3.63;;;16.20;1.00;;;;;;5078588;28;20032;-83
2021/08/10 04:07:27;;;;;;;4.40;3.40;;;16.10;1.00;;;;;;5075570;28;20097;-82
2021/08/10 04:09:54;;;;;;;4.47;3.33;;;16.00;1.00;;;;;;5075888;28;20357;-83
2021/08/10 04:12:21;;;;;;;6.47;3.58;;;16.00;1.00;;;;;;5077208;28;20032;-82
2021/08/10 04:14:46;;;;;;;4.90;3.78;;;16.10;1.00;;;;;;5072020;28;20024;-83
2021/08/10 04:17:13;;;;;;;4.38;3.70;;;16.10;1.00;;;;;;5076074;28;20051;-83
2021/08/10 04:19:50;;;;;;;5.28;3.50;;;16.00;1.00;;;;;;5076244;28;20031;-83
2021/08/10 04:22:17;;;;;;;6.47;3.30;;;16.10;1.00;;;;;;5076243;28;20032;-82
2021/08/10 04:24:44;;;;;;;4.78;3.47;;;16.10;1.00;;;;;;5075619;28;20422;-82
2021/08/10 04:27:12;;;;;;;5.85;3.35;;;16.10;1.00;;;;;;5073346;28;20044;-83
2021/08/10 04:29:38;;;;;;;5.20;3.45;;;16.10;1.00;;;;;;5063798;28;20392;-83
2021/08/10 04:32:05;;;;;;;3.95;3.55;;;16.10;1.00;;;;;;5077511;28;20414;-83
2021/08/10 04:34:30;;;;;;;4.80;3.65;;;16.00;1.00;;;;;;5075104;28;20032;-82
2021/08/10 04:36:56;;;;;;;7.03;3.25;;;16.10;1.00;;;;;;5075534;28;20020;-83
2021/08/10 04:39:25;;;;;;;4.85;4.00;;;16.10;1.00;;;;;;5075251;28;20146;-82
2021/08/10 04:41:51;;;;;;;4.72;3.20;;;16.00;1.00;;;;;;5072065;28;20016;-83
2021/08/10 04:44:17;;;;;;;4.20;3.53;;;16.00;1.00;;;;;;5073625;28;20165;-83
2021/08/10 04:46:43;;;;;;;6.85;3.45;;;16.00;1.00;;;;;;5076360;28;20079;-82
2021/08/10 04:49:08;;;;;;;4.07;3.00;;;16.00;1.00;;;;;;5075158;28;20108;-82
2021/08/10 04:51:34;;;;;;;4.75;3.45;;;16.10;1.00;;;;;;5073545;28;20103;-82
2021/08/10 04:54:00;;;;;;;8.10;3.50;;;16.20;1.00;;;;;;5086889;28;20036;-82
2021/08/10 04:56:25;;;;;;;4.85;3.20;;;16.10;1.00;;;;;;5071792;28;20028;-83
2021/08/10 04:58:51;;;;;;;5.40;3.60;;;16.20;1.00;;;;;;5075299;28;20020;-82
2021/08/10 05:01:17;;;;;;;5.95;3.65;;;16.20;1.00;;;;;;5074875;28;20020;-83
2021/08/10 05:03:44;;;;;;;5.60;3.70;;;16.10;1.00;;;;;;5074631;28;20385;-82
2021/08/10 05:06:09;;;;;;;5.40;3.28;;;16.30;1.00;;;;;;5072274;28;20068;-83
2021/08/10 05:08:35;;;;;;;4.72;3.28;;;16.20;1.00;;;;;;5070096;28;20304;-82
2021/08/10 05:11:01;;;;;;;8.07;3.55;;;16.20;1.00;;;;;;5075906;28;20109;-83
2021/08/10 05:13:28;;;;;;;6.18;3.38;;;16.30;1.00;;;;;;5072667;28;20126;-83
2021/08/10 05:15:53;;;;;;;5.30;3.38;;;16.30;1.00;;;;;;5074597;28;20024;-82
2021/08/10 05:18:19;;;;;;;4.43;3.30;;;16.30;1.00;;;;;;5075047;28;20046;-83
2021/08/10 05:20:45;;;;;;;5.32;4.00;;;16.40;1.00;;;;;;5071211;28;20492;-82
2021/08/10 05:23:10;;;;;;;5.82;3.70;;;16.50;1.00;;;;;;5076019;28;20021;-83
2021/08/10 05:25:36;;;;;;;5.95;4.28;;;16.50;1.00;;;;;;5074380;28;20037;-83
2021/08/10 05:28:02;;;;;;;5.00;3.70;;;16.70;1.00;;;;;;5073591;28;20040;-83
2021/08/10 05:30:27;;;;;;;5.32;4.25;;;16.60;1.00;;;;;;5073994;28;20397;-82
2021/08/10 05:32:53;;;;;;;8.07;3.90;;;16.60;1.00;;;;;;5071798;28;20020;-83
2021/08/10 05:35:18;;;;;;;7.85;4.05;;;16.50;1.00;;;;;;5073496;28;20032;-83
2021/08/10 05:37:44;;;;;;;4.90;3.58;;;16.50;1.00;;;;;;5075377;28;20028;-83
2021/08/10 05:40:10;;;;;;;6.03;3.35;;;16.60;1.00;;;;;;5074213;28;20024;-83
2021/08/10 05:42:36;;;;;;;7.43;4.05;;;16.70;1.00;;;;;;5072907;28;20043;-83
2021/08/10 05:45:01;;;;;;;5.00;3.72;;;16.80;1.00;;;;;;5071077;28;20479;-83
2021/08/10 05:47:27;;;;;;;6.72;3.70;;;16.70;1.00;;;;;;5071311;28;20033;-83
2021/08/10 05:49:53;;;;;;;6.57;3.95;;;16.80;1.00;;;;;;5073989;28;20028;-83
2021/08/10 05:52:18;;;;;;;4.97;3.88;;;16.90;1.00;;;;;;5073717;28;20033;-85
2021/08/10 05:54:44;;;;;;;5.10;3.50;;;17.00;1.00;;;;;;5073499;28;20033;-86
2021/08/10 05:57:09;;;;;;;7.00;4.07;;;17.00;1.00;;;;;;5073516;28;20403;-86
2021/08/10 05:59:35;;;;;;;8.15;3.78;;;17.10;1.00;;;;;;5069328;28;20032;-86
2021/08/10 06:02:02;;;;;;;6.10;4.13;;;17.10;1.00;;;;;;5075786;28;20111;-85
2021/08/10 06:04:27;;;;;;;7.13;3.88;;;17.20;1.00;;;;;;5073963;28;20039;-86
2021/08/10 06:06:53;;;;;;;6.80;3.58;;;17.20;1.00;;;;;;5073841;28;20036;-86
2021/08/10 06:09:19;;;;;;;5.30;3.70;;;17.30;1.00;;;;;;5073734;28;20020;-86
2021/08/10 06:11:44;;;;;;;7.38;3.60;;;17.30;1.00;;;;;;5070142;28;20044;-85
2021/08/10 06:14:10;;;;;;;7.60;3.70;;;17.30;1.00;;;;;;5070853;28;20547;-85
2021/08/10 06:16:37;;;;;;;5.57;3.67;;;17.30;1.00;;;;;;5073820;28;20113;-86
2021/08/10 06:19:04;;;;;;;5.72;3.90;;;17.40;1.00;;;;;;5073699;28;20016;-86
2021/08/10 06:21:29;;;;;;;6.85;3.90;;;17.50;1.00;;;;;;5073998;28;20024;-86
2021/08/10 06:23:55;;;;;;;4.43;3.50;;;17.50;1.00;;;;;;5070066;28;20017;-86
2021/08/10 06:26:21;;;;;;;6.13;4.00;;;17.50;1.00;;;;;;5072316;28;20503;-86
2021/08/10 06:28:47;;;;;;;4.88;4.03;;;17.60;1.00;;;;;;5066974;28;20074;-86
2021/08/10 06:31:13;;;;;;;8.27;3.85;;;17.70;1.00;;;;;;5083452;28;20028;-83
2021/08/10 06:33:39;;;;;;;6.90;3.58;;;17.90;1.00;;;;;;5081727;28;20430;-84
2021/08/10 06:36:05;;;;;;;3.75;3.20;;;17.90;1.00;;;;;;5072857;28;20085;-84
2021/08/10 06:38:31;;;;;;;7.07;3.40;;;18.00;1.00;;;;;;5069893;28;20037;-85
2021/08/10 06:40:57;;;;;;;5.85;4.00;;;18.10;1.00;;;;;;5075505;28;20500;-84
2021/08/10 06:43:22;;;;;;;5.07;3.75;;;18.10;1.00;;;;;;5078379;28;20032;-84
2021/08/10 06:45:48;;;;;;;5.13;3.85;;;18.20;1.00;;;;;;5078304;28;20080;-84
2021/08/10 06:48:14;;;;;;;5.05;3.67;;;18.40;1.00;;;;;;5073355;28;20040;-85
2021/08/10 06:50:40;;;;;;;9.82;3.80;;;18.50;1.00;;;;;;5069704;28;20036;-83
2021/08/10 06:53:05;;;;;;;7.95;3.83;;;18.70;1.00;;;;;;5082242;28;20028;-82
2021/08/10 06:55:31;;;;;;;7.80;4.25;;;18.90;1.00;;;;;;5056096;28;20063;-83
2021/08/10 06:57:57;;;;;;;8.98;4.28;;;18.90;1.00;;;;;;5067081;28;20052;-83
2021/08/10 07:00:22;;;;;;;7.57;3.47;;;19.10;1.00;;;;;;5073456;28;20548;-82
2021/08/10 07:02:48;;;;;;;4.43;3.60;;;18.90;1.00;;;;;;5070707;28;20028;-83
2021/08/10 07:05:15;;;;;;;7.50;3.63;;;19.00;1.00;;;;;;5073489;28;20016;-82
2021/08/10 07:07:41;;;;;;;4.97;3.65;;;19.10;1.00;;;;;;5072622;28;20541;-83
2021/08/10 07:10:07;;;;;;;9.65;3.72;;;19.30;1.00;;;;;;5073927;28;20020;-83
2021/08/10 07:12:33;;;;;;;8.40;4.30;;;19.40;1.00;;;;;;5066579;28;20036;-80
2021/08/10 07:14:58;;;;;;;5.57;3.95;;;19.50;1.00;;;;;;5068841;28;20025;-85
2021/08/10 07:17:24;;;;;;;5.45;3.50;;;19.50;1.00;;;;;;5071556;28;20016;-84
2021/08/10 07:19:49;;;;;;;7.65;3.80;;;19.60;1.00;;;;;;5072666;28;20032;-82
2021/08/10 07:22:15;;;;;;;6.35;3.88;;;19.60;1.00;;;;;;5073297;28;20370;-83
2021/08/10 07:24:41;;;;;;;6.07;3.65;;;19.50;1.00;;;;;;5073517;28;20404;-83
2021/08/10 07:27:06;;;;;;;5.40;4.00;;;19.50;1.00;;;;;;5069940;28;20052;-82
2021/08/10 07:29:32;;;;;;;5.65;3.83;;;19.50;1.00;;;;;;5071175;28;20063;-87
2021/08/10 07:31:58;;;;;;;5.70;4.20;;;19.60;1.00;;;;;;5078796;28;20091;-83
2021/08/10 07:34:24;;;;;;;7.40;3.92;;;19.60;1.00;;;;;;5075810;28;20400;-82
2021/08/10 07:36:50;;;;;;;6.88;4.10;;;19.60;1.00;;;;;;5062851;28;20063;-83
2021/08/10 07:39:15;;;;;;;8.10;3.95;;;19.80;1.00;;;;;;5056329;28;20416;-83
2021/08/10 07:41:41;;;;;;;4.72;3.40;;;19.80;1.00;;;;;;5069963;28;20082;-83
2021/08/10 07:44:07;;;;;;;5.53;3.50;;;20.10;1.00;;;;;;5067504;28;20082;-82
2021/08/10 07:46:33;;;;;;;7.15;3.92;;;20.10;1.00;;;;;;5069177;28;20032;-83
2021/08/10 07:48:59;;;;;;;5.68;3.70;;;20.10;1.00;;;;;;5067193;28;20489;-83
2021/08/10 07:51:25;;;;;;;5.07;3.70;;;20.20;1.00;;;;;;5067618;28;20563;-81
2021/08/10 07:53:51;;;;;;;6.20;3.35;;;20.30;1.00;;;;;;5055365;28;20096;-82
2021/08/10 07:56:16;;;;;;;6.47;3.40;;;20.30;1.00;;;;;;5056146;28;20398;-83
2021/08/10 07:58:42;;;;;;;5.55;3.45;;;20.50;1.00;;;;;;5069079;28;20064;-82
2021/08/10 08:01:08;;;;;;;4.82;3.67;;;20.60;1.00;;;;;;5067516;28;20473;-82
2021/08/10 08:03:35;;;;;;;4.70;3.20;;;20.80;1.00;;;;;;5067329;28;20027;-83
2021/08/10 08:06:00;;;;;;;5.53;3.58;;;20.90;1.00;;;;;;5069379;28;20148;-85
2021/08/10 08:08:27;;;;;;;5.55;3.85;;;21.00;1.00;;;;;;5055630;28;20155;-82
2021/08/10 08:10:54;;;;;;;6.72;3.47;;;21.00;1.00;;;;;;5057565;28;20025;-82
2021/08/10 08:13:20;;;;;;;7.35;3.30;;;21.00;1.00;;;;;;5064126;28;20086;-83
2021/08/10 08:15:46;;;;;;;6.07;4.10;;;21.20;1.00;;;;;;5065263;28;20116;-82
2021/08/10 08:18:12;;;;;;;5.30;3.78;;;21.20;1.00;;;;;;5062642;28;20131;-82
2021/08/10 08:20:38;;;;;;;9.35;3.90;;;21.20;1.00;;;;;;5053375;28;20099;-82
2021/08/10 08:23:04;;;;;;;5.00;3.85;;;21.40;1.00;;;;;;5057767;28;20095;-82
2021/08/10 08:25:30;;;;;;;3.72;3.15;;;21.50;1.00;;;;;;5057761;28;20166;-82
2021/08/10 08:27:56;;;;;;;8.80;3.70;;;21.60;1.00;;;;;;5058410;28;20033;-83
2021/08/10 08:30:22;;;;;;;7.75;3.83;;;21.80;1.00;;;;;;5067529;28;20031;-82
2021/08/10 08:32:47;;;;;;;5.47;3.58;;;21.80;1.00;;;;;;5065558;28;20043;-82
2021/08/10 08:35:13;;;;;;;4.50;3.30;;;21.90;1.00;;;;;;5055621;28;20021;-82
2021/08/10 08:37:39;;;;;;;7.28;4.03;;;21.80;1.00;;;;;;5058446;28;20461;-83
2021/08/10 08:40:06;;;;;;;5.38;3.38;;;22.00;1.00;;;;;;5058617;28;20025;-82
2021/08/10 08:42:33;;;;;;;5.68;3.65;;;22.10;1.00;;;;;;5057441;28;20112;-82
2021/08/10 08:44:59;;;;;;;3.80;3.40;;;22.10;99.90;;;;;;5062090;28;20113;-83
2021/08/10 08:47:25;;;;;;;6.68;3.95;;;22.10;1.00;;;;;;5054391;28;20132;-82
2021/08/10 08:49:55;;;;;;;8.10;3.92;;;22.30;1.00;;;;;;5056905;28;20112;-83
2021/08/10 08:52:23;;;;;;;5.00;3.42;;;22.50;99.90;;;;;;5057551;28;20060;-82
2021/08/10 08:54:49;;;;;;;6.93;3.55;;;22.50;99.90;;;;;;5059285;28;20040;-83
2021/08/10 08:57:15;;;;;;;5.45;3.60;;;22.70;99.90;;;;;;5068522;28;20489;-83
2021/08/10 08:59:42;;;;;;;5.85;4.22;;;22.70;99.90;;;;;;5063531;28;20023;-83
2021/08/10 09:02:16;;;;;;;5.10;3.33;;;22.60;99.90;;;;;;5068370;28;20032;-82
2021/08/10 09:04:42;;;;;;;4.35;3.80;;;22.70;99.90;;;;;;5057573;28;20029;-83
2021/08/10 09:07:08;;;;;;;7.55;4.30;;;22.80;1.00;;;;;;5057772;28;20094;-82
2021/08/10 09:09:34;;;;;;;8.05;4.00;;;23.00;99.90;;;;;;5056756;28;20520;-82
2021/08/10 09:12:07;;;;;;;5.85;3.58;;;23.20;1.00;;;;;;5054051;28;20029;-82
2021/08/10 09:14:45;;;;;;;7.38;3.85;;;23.30;99.90;;;;;;5068801;28;20049;-86
2021/08/10 09:17:31;;;;;;;5.40;4.05;;;23.40;99.90;;;;;;5068110;28;20039;-83
2021/08/10 09:20:01;;;;;;;5.43;3.63;;;23.30;99.90;;;;;;5066105;28;20052;-82
2021/08/10 09:22:32;;;;;;;5.80;3.50;;;23.20;1.00;;;;;;5064995;28;20063;-83
2021/08/10 09:25:01;;;;;;;5.18;3.67;;;23.30;1.00;;;;;;5065421;28;20074;-83
2021/08/10 09:27:39;;;;;;;6.93;3.80;;;23.40;1.00;;;;;;5068136;28;20523;-82
2021/08/10 09:30:24;;;;;;;6.47;4.13;;;23.70;1.00;;;;;;5066701;28;20025;-83
2021/08/10 09:33:00;;;;;;;5.65;3.95;;;23.70;1.00;;;;;;5056862;28;20084;-83
2021/08/10 09:35:31;;;;;;;5.60;3.70;;;23.70;1.00;;;;;;5071913;28;20090;-82
2021/08/10 09:38:06;;;;;;;7.85;4.13;;;23.80;99.90;;;;;;5080922;28;20110;-82
2021/08/10 09:40:33;;;;;;;9.63;4.03;;;24.00;99.90;;;;;;5073181;28;20032;-82
2021/08/10 09:43:21;;;;;;;4.28;3.88;;;24.10;99.90;;;;;;5069226;28;20070;-83
2021/08/10 09:45:47;;;;;;;4.07;3.38;;;24.00;99.90;;;;;;5073788;28;20021;-82
2021/08/10 09:48:14;;;;;;;5.05;4.03;;;24.30;99.90;;;;;;5074363;28;20024;-83
2021/08/10 09:50:39;;;;;;;5.40;3.90;;;24.40;99.90;;;;;;5054022;28;20460;-82
2021/08/10 09:53:19;;;;;;;5.88;4.07;;;24.50;99.90;;;;;;5076180;28;20469;-83
2021/08/10 09:55:54;;;;;;;5.75;4.28;;;24.50;99.90;;;;;;5088519;28;20016;-82
2021/08/10 09:58:20;;;;;;;4.95;4.15;;;24.60;99.90;;;;;;5079785;28;20114;-83
2021/08/10 10:00:46;;;;;;;5.78;3.85;;;24.80;99.90;;;;;;5073131;28;20116;-83
2021/08/10 10:03:24;;;;;;;7.22;4.35;;;24.90;99.90;;;;;;5074036;28;20077;-83
2021/08/10 10:05:50;;;;;;;5.93;4.22;;;24.90;99.90;;;;;;5056482;28;20047;-83
2021/08/10 10:08:18;;;;;;;5.65;3.90;;;24.60;99.90;;;;;;5073936;28;20060;-83
2021/08/10 10:10:46;;;;;;;6.63;4.20;;;25.00;99.90;;;;;;5074761;28;20467;-83
2021/08/10 10:13:14;;;;;;;4.45;3.97;;;25.20;99.90;;;;;;5068371;28;20567;-82
2021/08/10 10:15:40;;;;;;;7.05;4.38;;;25.40;99.90;;;;;;5073414;28;20021;-84
2021/08/10 10:18:07;;;;;;;5.95;3.85;;;25.60;99.90;;;;;;5071453;28;20019;-83
2021/08/10 10:20:38;;;;;;;6.90;4.03;;;25.60;99.90;;;;;;5069585;28;20112;-83
2021/08/10 10:23:04;;;;;;;6.22;4.40;;;25.40;99.90;;;;;;5075361;28;20044;-84
2021/08/10 10:25:32;;;;;;;6.38;3.97;;;25.30;99.90;;;;;;5073838;28;20024;-84
2021/08/10 10:28:01;;;;;;;4.80;4.20;;;25.50;99.90;;;;;;5075527;28;20060;-84
2021/08/10 10:30:27;;;;;;;7.88;4.40;;;25.50;99.90;;;;;;5082658;28;20489;-83
2021/08/10 10:32:54;;;;;;;5.07;3.92;;;25.50;99.90;;;;;;5070826;28;20104;-84
2021/08/10 10:35:20;;;;;;;8.27;4.22;;;25.60;99.90;;;;;;5073135;28;20039;-84
2021/08/10 10:37:48;;;;;;;5.57;3.85;;;25.70;99.90;;;;;;5075230;28;20060;-84
2021/08/10 10:40:18;;;;;;;6.10;4.00;;;25.70;99.90;;;;;;5073497;28;20027;-84
2021/08/10 10:42:45;;;;;;;5.53;3.60;;;26.30;99.90;;;;;;5070495;28;20033;-84
2021/08/10 10:45:34;;;;;;;4.57;4.18;;;26.20;99.90;;;;;;5070196;28;20111;-83
2021/08/10 10:48:00;;;;;;;6.43;3.78;;;26.30;99.90;;;;;;5055039;28;20044;-85
2021/08/10 10:50:25;;;;;;;6.75;3.80;;;26.40;99.90;;;;;;5070688;28;20033;-86
2021/08/10 10:53:20;;;;;;;7.30;4.13;;;26.70;99.90;;;;;;5073892;28;20028;-86
2021/08/10 10:55:46;;;;;;;4.43;3.60;;;27.00;99.90;;;;;;5075199;28;20056;-86
2021/08/10 10:58:32;;;;;;;8.10;3.92;;;27.80;99.90;;;;;;5072188;28;20056;-91
2021/08/10 11:01:21;;;;;;;8.05;3.80;;;28.70;99.90;;;;;;5071269;28;20021;-85
2021/08/10 11:04:02;;;;;;;5.13;3.30;;;31.80;99.90;;;;;;5072526;28;20020;-85
2021/08/10 11:06:35;;;;;;;6.07;3.85;;;35.70;99.90;;;;;;5077603;28;20131;-85
2021/08/10 11:09:03;;;;;;;7.95;3.97;;;37.60;99.90;;;;;;5075089;28;20095;-86
2021/08/10 11:11:52;;;;;;;6.38;3.60;;;39.10;99.90;;;;;;5056233;28;20025;-86
2021/08/10 11:14:36;;;;;;;4.85;3.63;;;40.50;99.90;;;;;;5074129;28;20028;-84
2021/08/10 11:17:08;;;;;;;4.45;3.40;;;41.40;99.90;;;;;;5078233;28;20112;-84
2021/08/10 11:19:35;;;;;;;4.10;3.53;;;41.70;99.90;;;;;;5076555;28;20484;-85
2021/08/10 11:22:16;;;;;;;5.38;3.72;;;40.50;99.90;;;;;;5075096;28;20025;-85
2021/08/10 11:24:52;;;;;;;5.18;3.70;;;39.80;99.90;;;;;;5076643;28;20016;-84
2021/08/10 11:27:43;;;;;;;4.32;3.90;;;38.40;99.90;;;;;;5076238;28;20502;-84
2021/08/10 11:30:30;;;;;;;5.75;3.22;;;36.80;99.90;;;;;;5076054;28;20400;-85
2021/08/10 11:32:57;;;;;;;7.55;3.75;;;38.30;99.90;;;;;;5060432;28;20021;-85
2021/08/10 11:35:35;;;;;;;4.65;3.50;;;38.60;99.90;;;;;;5076155;28;20024;-84
2021/08/10 11:38:23;;;;;;;6.60;3.83;;;38.10;99.90;;;;;;5077964;28;20071;-84
2021/08/10 11:40:57;;;;;;;4.15;3.30;;;38.90;99.90;;;;;;5078187;28;20024;-84
2021/08/10 11:43:45;;;;;;;5.75;3.25;;;41.30;99.90;;;;;;5076374;28;20514;-82
2021/08/10 11:46:27;;;;;;;5.47;3.40;;;42.40;99.90;;;;;;5076366;28;20063;-83
2021/08/10 11:49:03;;;;;;;3.97;3.20;;;41.70;99.90;;;;;;5076360;28;20130;-83
2021/08/10 11:51:35;;;;;;;3.70;3.33;;;43.00;99.90;;;;;;5072260;28;20025;-83
2021/08/10 11:54:23;;;;;;;4.45;3.42;;;43.50;99.90;;;;;;5070723;28;20029;-82
2021/08/10 11:57:04;;;;;;;5.85;3.13;;;44.70;99.90;;;;;;5038964;28;20012;-82
2021/08/10 11:59:30;;;;;;;4.05;3.30;;;45.30;99.90;;;;;;5071864;28;20060;-83
2021/08/10 12:02:00;;;;;;;4.38;3.50;;;45.00;99.90;;;;;;5073758;28;20056;-83
2021/08/10 12:04:37;;;;;;;5.03;3.10;;;42.80;99.90;;;;;;5071575;28;20039;-83
2021/08/10 12:07:07;;;;;;;5.50;3.00;;;42.20;99.90;;;;;;5071529;28;20040;-81
2021/08/10 12:09:35;;;;;;;3.80;2.95;;;43.30;99.90;;;;;;5072235;28;20056;-83
2021/08/10 12:12:02;;;;;;;4.55;3.10;;;43.50;99.90;;;;;;5071276;28;20048;-83
2021/08/10 12:14:30;;;;;;;3.83;3.45;;;44.10;99.90;;;;;;5072175;28;20485;-83
2021/08/10 12:17:05;;;;;;;3.60;3.10;;;43.70;99.90;;;;;;5057616;28;20431;-82
2021/08/10 12:19:38;;;;;;;3.85;3.10;;;41.90;99.90;;;;;;5069255;28;20029;-81
2021/08/10 12:22:18;;;;;;;3.88;3.03;;;40.70;99.90;;;;;;5069264;28;20067;-81
2021/08/10 12:24:45;;;;;;;5.55;2.90;;;40.90;99.90;;;;;;5067484;28;20104;-83
2021/08/10 12:27:13;;;;;;;5.55;3.03;;;39.20;99.90;;;;;;5070172;28;20136;-81
2021/08/10 12:29:44;;;;;;;3.85;3.20;;;38.00;99.90;;;;;;5072004;28;20459;-84
2021/08/10 12:32:11;;;;;;;6.60;3.38;;;37.60;99.90;;;;;;5068958;28;20028;-83
2021/08/10 12:34:39;;;;;;;5.78;3.35;;;39.40;99.90;;;;;;5069902;28;20029;-83
2021/08/10 12:37:06;;;;;;;3.85;3.22;;;38.70;99.90;;;;;;5070131;28;20444;-82
2021/08/10 12:39:49;;;;;;;3.15;2.80;;;39.60;99.90;;;;;;5070825;28;20439;-81
2021/08/10 12:42:15;;;;;;;4.10;2.95;;;39.90;99.90;;;;;;5071327;28;20038;-82
2021/08/10 12:44:41;;;;;;;7.30;3.03;;;40.10;99.90;;;;;;5053183;28;20385;-83
2021/08/10 12:47:09;;;;;;;4.57;2.80;;;39.60;99.90;;;;;;5072994;28;20037;-83
2021/08/10 12:49:40;;;;;;;3.60;2.80;;;38.50;99.90;;;;;;5070366;28;20025;-83
2021/08/10 12:52:14;;;;;;;4.60;3.10;;;37.90;99.90;;;;;;5070730;28;20020;-82
2021/08/10 12:54:58;;;;;;;3.50;3.08;;;39.70;99.90;;;;;;5068959;28;20024;-83
2021/08/10 12:57:30;;;;;;;4.07;2.80;;;40.80;99.90;;;;;;5069184;28;20029;-83
2021/08/10 13:00:00;;;;;;;4.93;3.10;;;40.90;99.90;;;;;;5064165;28;20032;-83
2021/08/10 13:02:32;;;;;;;3.95;2.97;;;40.70;99.90;;;;;;5060590;28;20545;-82